sensor_id;sensor_type;location;lat;lon;timestamp;temperature;humidity
16966;DHT22;8599;47.852;12.070;2022-12-29T00:00:17;4.60;99.90
16966;DHT22;8599;47.852;12.070;2022-12-29T00:02:45;4.60;99.90
16966;DHT22;8599;47.852;12.070;2022-12-29T00:05:12;4.70;99.90
16966;DHT22;8599;47.852;12.070;2022-12-29T00:07:39;4.70;99.90
16966;DHT22;8599;47.852;12.070;2022-12-29T00:10:07;4.70;99.90
16966;DHT22;8599;47.852;12.070;2022-12-29T00:12:33;4.70;99.90
16966;DHT22;8599;47.852;12.070;2022-12-29T00:15:14;4.60;99.90
16966;DHT22;8599;47.852;12.070;2022-12-29T00:18:00;4.70;99.90
16966;DHT22;8599;47.852;12.070;2022-12-29T00:20:26;4.80;99.90
16966;DHT22;8599;47.852;12.070;2022-12-29T00:23:10;4.90;99.90
16966;DHT22;8599;47.852;12.070;2022-12-29T00:26:05;4.90;99.90
16966;DHT22;8599;47.852;12.070;2022-12-29T00:28:52;4.80;99.90
16966;DHT22;8599;47.852;12.070;2022-12-29T00:31:33;4.70;99.90
16966;DHT22;8599;47.852;12.070;2022-12-29T00:34:19;4.70;99.90
16966;DHT22;8599;47.852;12.070;2022-12-29T00:37:03;4.60;99.90
16966;DHT22;8599;47.852;12.070;2022-12-29T00:39:30;4.60;99.90
16966;DHT22;8599;47.852;12.070;2022-12-29T00:42:14;4.60;99.90
16966;DHT22;8599;47.852;12.070;2022-12-29T00:45:01;4.50;99.90
16966;DHT22;8599;47.852;12.070;2022-12-29T00:47:27;4.50;99.90
16966;DHT22;8599;47.852;12.070;2022-12-29T00:49:55;4.50;99.90
16966;DHT22;8599;47.852;12.070;2022-12-29T00:52:21;4.40;99.90
16966;DHT22;8599;47.852;12.070;2022-12-29T00:54:48;4.50;99.90
16966;DHT22;8599;47.852;12.070;2022-12-29T00:57:16;4.50;99.90
16966;DHT22;8599;47.852;12.070;2022-12-29T00:59:43;4.50;99.90
16966;DHT22;8599;47.852;12.070;2022-12-29T01:02:11;4.50;99.90
16966;DHT22;8599;47.852;12.070;2022-12-29T01:04:37;4.50;99.90
16966;DHT22;8599;47.852;12.070;2022-12-29T01:07:06;4.40;99.90
16966;DHT22;8599;47.852;12.070;2022-12-29T01:09:32;4.50;99.90
16966;DHT22;8599;47.852;12.070;2022-12-29T01:12:17;4.50;99.90
16966;DHT22;8599;47.852;12.070;2022-12-29T01:15:06;4.50;99.90
16966;DHT22;8599;47.852;12.070;2022-12-29T01:17:33;4.50;99.90
16966;DHT22;8599;47.852;12.070;2022-12-29T01:20:00;4.50;99.90
16966;DHT22;8599;47.852;12.070;2022-12-29T01:22:28;4.40;99.90
16966;DHT22;8599;47.852;12.070;2022-12-29T01:24:55;4.40;99.90
16966;DHT22;8599;47.852;12.070;2022-12-29T01:27:22;4.30;99.90
16966;DHT22;8599;47.852;12.070;2022-12-29T01:29:49;4.30;99.90
16966;DHT22;8599;47.852;12.070;2022-12-29T01:32:15;4.50;99.90
16966;DHT22;8599;47.852;12.070;2022-12-29T01:34:42;4.40;99.90
16966;DHT22;8599;47.852;12.070;2022-12-29T01:37:09;4.30;99.90
16966;DHT22;8599;47.852;12.070;2022-12-29T01:39:37;4.30;99.90
16966;DHT22;8599;47.852;12.070;2022-12-29T01:42:04;4.30;99.90
16966;DHT22;8599;47.852;12.070;2022-12-29T01:44:52;4.30;99.90
16966;DHT22;8599;47.852;12.070;2022-12-29T01:47:25;4.40;99.90
16966;DHT22;8599;47.852;12.070;2022-12-29T01:49:54;4.40;99.90
16966;DHT22;8599;47.852;12.070;2022-12-29T01:52:23;4.30;99.90
16966;DHT22;8599;47.852;12.070;2022-12-29T01:54:53;4.30;99.90
16966;DHT22;8599;47.852;12.070;2022-12-29T01:57:25;4.40;99.90
16966;DHT22;8599;47.852;12.070;2022-12-29T01:59:57;4.40;99.90
16966;DHT22;8599;47.852;12.070;2022-12-29T02:02:24;4.40;99.90
16966;DHT22;8599;47.852;12.070;2022-12-29T02:04:52;4.40;99.90
16966;DHT22;8599;47.852;12.070;2022-12-29T02:07:22;4.30;99.90
16966;DHT22;8599;47.852;12.070;2022-12-29T02:09:53;4.30;99.90
16966;DHT22;8599;47.852;12.070;2022-12-29T02:12:23;4.40;99.90
16966;DHT22;8599;47.852;12.070;2022-12-29T02:14:53;4.40;99.90
16966;DHT22;8599;47.852;12.070;2022-12-29T02:17:32;4.40;99.90
16966;DHT22;8599;47.852;12.070;2022-12-29T02:20:19;4.50;99.90
16966;DHT22;8599;47.852;12.070;2022-12-29T02:23:06;4.50;99.90
16966;DHT22;8599;47.852;12.070;2022-12-29T02:26:04;4.50;99.90
16966;DHT22;8599;47.852;12.070;2022-12-29T02:31:44;4.50;99.90
16966;DHT22;8599;47.852;12.070;2022-12-29T02:34:20;4.40;99.90
16966;DHT22;8599;47.852;12.070;2022-12-29T02:36:57;4.40;99.90
16966;DHT22;8599;47.852;12.070;2022-12-29T02:39:32;4.50;99.90
16966;DHT22;8599;47.852;12.070;2022-12-29T02:42:07;4.60;99.90
16966;DHT22;8599;47.852;12.070;2022-12-29T02:44:44;4.50;99.90
16966;DHT22;8599;47.852;12.070;2022-12-29T02:47:19;4.50;99.90
16966;DHT22;8599;47.852;12.070;2022-12-29T02:49:51;4.60;99.90
16966;DHT22;8599;47.852;12.070;2022-12-29T02:52:25;4.60;99.90
16966;DHT22;8599;47.852;12.070;2022-12-29T02:54:54;4.50;99.90
16966;DHT22;8599;47.852;12.070;2022-12-29T02:57:30;4.60;99.90
16966;DHT22;8599;47.852;12.070;2022-12-29T03:00:02;4.50;99.90
16966;DHT22;8599;47.852;12.070;2022-12-29T03:03:00;4.50;99.90
16966;DHT22;8599;47.852;12.070;2022-12-29T03:05:59;4.60;99.90
16966;DHT22;8599;47.852;12.070;2022-12-29T03:08:33;4.70;99.90
16966;DHT22;8599;47.852;12.070;2022-12-29T03:11:03;4.70;99.90
16966;DHT22;8599;47.852;12.070;2022-12-29T03:13:37;4.70;99.90
16966;DHT22;8599;47.852;12.070;2022-12-29T03:16:28;4.80;99.90
16966;DHT22;8599;47.852;12.070;2022-12-29T03:19:02;4.70;99.90
16966;DHT22;8599;47.852;12.070;2022-12-29T03:21:35;4.70;99.90
16966;DHT22;8599;47.852;12.070;2022-12-29T03:24:25;4.70;99.90
16966;DHT22;8599;47.852;12.070;2022-12-29T03:26:56;4.80;99.90
16966;DHT22;8599;47.852;12.070;2022-12-29T03:29:25;4.80;99.90
16966;DHT22;8599;47.852;12.070;2022-12-29T03:31:53;4.80;99.90
16966;DHT22;8599;47.852;12.070;2022-12-29T03:34:23;4.80;99.90
16966;DHT22;8599;47.852;12.070;2022-12-29T03:36:52;4.90;99.90
16966;DHT22;8599;47.852;12.070;2022-12-29T03:39:22;4.80;99.90
16966;DHT22;8599;47.852;12.070;2022-12-29T03:41:53;4.80;99.90
16966;DHT22;8599;47.852;12.070;2022-12-29T03:44:31;4.80;99.90
16966;DHT22;8599;47.852;12.070;2022-12-29T03:46:58;4.90;99.90
16966;DHT22;8599;47.852;12.070;2022-12-29T03:49:26;4.90;99.90
16966;DHT22;8599;47.852;12.070;2022-12-29T03:51:53;4.80;99.90
16966;DHT22;8599;47.852;12.070;2022-12-29T03:54:20;4.90;99.90
16966;DHT22;8599;47.852;12.070;2022-12-29T03:56:47;4.90;99.90
16966;DHT22;8599;47.852;12.070;2022-12-29T03:59:14;5.10;99.90
16966;DHT22;8599;47.852;12.070;2022-12-29T04:01:41;5.10;99.90
16966;DHT22;8599;47.852;12.070;2022-12-29T04:04:08;5.00;99.90
16966;DHT22;8599;47.852;12.070;2022-12-29T04:06:36;5.10;99.90
16966;DHT22;8599;47.852;12.070;2022-12-29T04:09:03;5.10;99.90
16966;DHT22;8599;47.852;12.070;2022-12-29T04:11:31;5.10;99.90
16966;DHT22;8599;47.852;12.070;2022-12-29T04:13:58;5.10;99.90
16966;DHT22;8599;47.852;12.070;2022-12-29T04:16:25;5.10;99.90
16966;DHT22;8599;47.852;12.070;2022-12-29T04:18:51;5.10;99.90
16966;DHT22;8599;47.852;12.070;2022-12-29T04:21:18;5.00;99.90
16966;DHT22;8599;47.852;12.070;2022-12-29T04:23:46;4.90;99.90
16966;DHT22;8599;47.852;12.070;2022-12-29T04:26:13;5.00;99.90
16966;DHT22;8599;47.852;12.070;2022-12-29T04:28:40;5.00;99.90
16966;DHT22;8599;47.852;12.070;2022-12-29T04:31:07;5.10;99.90
16966;DHT22;8599;47.852;12.070;2022-12-29T04:33:33;5.00;99.90
16966;DHT22;8599;47.852;12.070;2022-12-29T04:36:00;5.00;99.90
16966;DHT22;8599;47.852;12.070;2022-12-29T04:38:27;5.00;99.90
16966;DHT22;8599;47.852;12.070;2022-12-29T04:40:58;5.00;99.90
16966;DHT22;8599;47.852;12.070;2022-12-29T04:43:25;5.00;99.90
16966;DHT22;8599;47.852;12.070;2022-12-29T04:45:52;5.00;99.90
16966;DHT22;8599;47.852;12.070;2022-12-29T04:48:18;5.10;99.90
16966;DHT22;8599;47.852;12.070;2022-12-29T04:50:47;5.20;99.90
16966;DHT22;8599;47.852;12.070;2022-12-29T04:53:15;5.30;99.90
16966;DHT22;8599;47.852;12.070;2022-12-29T04:55:42;5.20;99.90
16966;DHT22;8599;47.852;12.070;2022-12-29T04:58:10;5.20;99.90
16966;DHT22;8599;47.852;12.070;2022-12-29T05:00:37;5.20;99.90
16966;DHT22;8599;47.852;12.070;2022-12-29T05:03:04;5.20;99.90
16966;DHT22;8599;47.852;12.070;2022-12-29T05:05:30;5.30;99.90
16966;DHT22;8599;47.852;12.070;2022-12-29T05:07:57;5.20;99.90
16966;DHT22;8599;47.852;12.070;2022-12-29T05:10:24;5.20;99.90
16966;DHT22;8599;47.852;12.070;2022-12-29T05:12:51;5.20;99.90
16966;DHT22;8599;47.852;12.070;2022-12-29T05:15:19;5.10;99.90
16966;DHT22;8599;47.852;12.070;2022-12-29T05:17:46;5.10;99.90
16966;DHT22;8599;47.852;12.070;2022-12-29T05:20:13;5.10;99.90
16966;DHT22;8599;47.852;12.070;2022-12-29T05:22:39;5.00;99.90
16966;DHT22;8599;47.852;12.070;2022-12-29T05:25:07;5.00;99.90
16966;DHT22;8599;47.852;12.070;2022-12-29T05:27:34;5.10;99.90
16966;DHT22;8599;47.852;12.070;2022-12-29T05:30:01;5.20;99.90
16966;DHT22;8599;47.852;12.070;2022-12-29T05:32:29;5.10;99.90
16966;DHT22;8599;47.852;12.070;2022-12-29T05:34:56;5.20;99.90
16966;DHT22;8599;47.852;12.070;2022-12-29T05:37:22;5.20;99.90
16966;DHT22;8599;47.852;12.070;2022-12-29T05:39:49;5.30;99.90
16966;DHT22;8599;47.852;12.070;2022-12-29T05:42:16;5.40;99.90
16966;DHT22;8599;47.852;12.070;2022-12-29T05:44:43;5.40;99.90
16966;DHT22;8599;47.852;12.070;2022-12-29T05:47:10;5.40;99.90
16966;DHT22;8599;47.852;12.070;2022-12-29T05:49:38;5.40;99.90
16966;DHT22;8599;47.852;12.070;2022-12-29T05:52:04;5.60;99.90
16966;DHT22;8599;47.852;12.070;2022-12-29T05:54:31;5.70;99.90
16966;DHT22;8599;47.852;12.070;2022-12-29T05:56:58;5.60;99.90
16966;DHT22;8599;47.852;12.070;2022-12-29T05:59:25;5.50;99.90
16966;DHT22;8599;47.852;12.070;2022-12-29T06:01:51;5.50;99.90
16966;DHT22;8599;47.852;12.070;2022-12-29T06:04:18;5.40;99.90
16966;DHT22;8599;47.852;12.070;2022-12-29T06:06:47;5.40;99.90
16966;DHT22;8599;47.852;12.070;2022-12-29T06:09:13;5.30;99.90
16966;DHT22;8599;47.852;12.070;2022-12-29T06:11:40;5.30;99.90
16966;DHT22;8599;47.852;12.070;2022-12-29T06:14:08;5.30;99.90
16966;DHT22;8599;47.852;12.070;2022-12-29T06:16:35;5.30;99.90
16966;DHT22;8599;47.852;12.070;2022-12-29T06:19:02;5.30;99.90
16966;DHT22;8599;47.852;12.070;2022-12-29T06:21:29;5.30;99.90
16966;DHT22;8599;47.852;12.070;2022-12-29T06:23:57;5.20;99.90
16966;DHT22;8599;47.852;12.070;2022-12-29T06:26:24;5.20;99.90
16966;DHT22;8599;47.852;12.070;2022-12-29T06:28:51;5.30;99.90
16966;DHT22;8599;47.852;12.070;2022-12-29T06:31:17;5.40;99.90
16966;DHT22;8599;47.852;12.070;2022-12-29T06:33:44;5.50;99.90
16966;DHT22;8599;47.852;12.070;2022-12-29T06:36:11;5.50;99.90
16966;DHT22;8599;47.852;12.070;2022-12-29T06:38:38;5.50;99.90
16966;DHT22;8599;47.852;12.070;2022-12-29T06:41:06;5.50;99.90
16966;DHT22;8599;47.852;12.070;2022-12-29T06:43:33;5.60;99.90
16966;DHT22;8599;47.852;12.070;2022-12-29T06:46:01;5.60;99.90
16966;DHT22;8599;47.852;12.070;2022-12-29T06:48:28;5.60;99.90
16966;DHT22;8599;47.852;12.070;2022-12-29T06:50:54;5.60;99.90
16966;DHT22;8599;47.852;12.070;2022-12-29T06:53:21;5.60;99.90
16966;DHT22;8599;47.852;12.070;2022-12-29T06:55:48;5.70;99.90
16966;DHT22;8599;47.852;12.070;2022-12-29T06:58:17;5.80;99.90
16966;DHT22;8599;47.852;12.070;2022-12-29T07:00:44;5.70;99.90
16966;DHT22;8599;47.852;12.070;2022-12-29T07:03:10;5.80;99.90
16966;DHT22;8599;47.852;12.070;2022-12-29T07:05:37;5.80;99.90
16966;DHT22;8599;47.852;12.070;2022-12-29T07:08:04;5.90;99.90
16966;DHT22;8599;47.852;12.070;2022-12-29T07:10:31;5.90;99.90
16966;DHT22;8599;47.852;12.070;2022-12-29T07:12:58;5.70;99.90
16966;DHT22;8599;47.852;12.070;2022-12-29T07:15:26;5.80;99.90
16966;DHT22;8599;47.852;12.070;2022-12-29T07:17:53;5.80;99.90
16966;DHT22;8599;47.852;12.070;2022-12-29T07:20:20;5.70;99.90
16966;DHT22;8599;47.852;12.070;2022-12-29T07:22:46;5.60;99.90
16966;DHT22;8599;47.852;12.070;2022-12-29T07:25:13;5.60;99.90
16966;DHT22;8599;47.852;12.070;2022-12-29T07:27:40;5.70;99.90
16966;DHT22;8599;47.852;12.070;2022-12-29T07:30:08;5.70;99.90
16966;DHT22;8599;47.852;12.070;2022-12-29T07:32:36;5.70;99.90
16966;DHT22;8599;47.852;12.070;2022-12-29T07:35:03;5.60;99.90
16966;DHT22;8599;47.852;12.070;2022-12-29T07:37:30;5.60;99.90
16966;DHT22;8599;47.852;12.070;2022-12-29T07:39:57;5.60;99.90
16966;DHT22;8599;47.852;12.070;2022-12-29T07:42:24;5.60;99.90
16966;DHT22;8599;47.852;12.070;2022-12-29T07:44:51;5.60;99.90
16966;DHT22;8599;47.852;12.070;2022-12-29T07:47:18;5.60;99.90
16966;DHT22;8599;47.852;12.070;2022-12-29T07:49:46;5.70;99.90
16966;DHT22;8599;47.852;12.070;2022-12-29T07:52:13;5.70;99.90
16966;DHT22;8599;47.852;12.070;2022-12-29T07:54:39;5.80;99.90
16966;DHT22;8599;47.852;12.070;2022-12-29T07:57:06;5.70;99.90
16966;DHT22;8599;47.852;12.070;2022-12-29T07:59:33;5.80;99.90
16966;DHT22;8599;47.852;12.070;2022-12-29T08:02:00;5.80;99.90
16966;DHT22;8599;47.852;12.070;2022-12-29T08:04:27;5.80;99.90
16966;DHT22;8599;47.852;12.070;2022-12-29T08:06:55;5.80;99.90
16966;DHT22;8599;47.852;12.070;2022-12-29T08:09:22;5.80;99.90
16966;DHT22;8599;47.852;12.070;2022-12-29T08:11:49;5.90;99.90
16966;DHT22;8599;47.852;12.070;2022-12-29T08:14:16;5.80;99.90
16966;DHT22;8599;47.852;12.070;2022-12-29T08:16:42;5.80;99.90
16966;DHT22;8599;47.852;12.070;2022-12-29T08:19:10;5.90;99.90
16966;DHT22;8599;47.852;12.070;2022-12-29T08:21:37;5.90;99.90
16966;DHT22;8599;47.852;12.070;2022-12-29T08:24:06;5.90;99.90
16966;DHT22;8599;47.852;12.070;2022-12-29T08:26:33;6.00;99.90
16966;DHT22;8599;47.852;12.070;2022-12-29T08:28:59;6.00;99.90
16966;DHT22;8599;47.852;12.070;2022-12-29T08:31:26;5.90;99.90
16966;DHT22;8599;47.852;12.070;2022-12-29T08:33:53;6.00;99.90
16966;DHT22;8599;47.852;12.070;2022-12-29T08:36:20;6.00;99.90
16966;DHT22;8599;47.852;12.070;2022-12-29T08:38:47;6.10;99.90
16966;DHT22;8599;47.852;12.070;2022-12-29T08:41:15;6.10;99.90
16966;DHT22;8599;47.852;12.070;2022-12-29T08:43:45;6.20;99.90
16966;DHT22;8599;47.852;12.070;2022-12-29T08:46:12;6.20;99.90
16966;DHT22;8599;47.852;12.070;2022-12-29T08:48:39;6.20;99.90
16966;DHT22;8599;47.852;12.070;2022-12-29T08:51:06;6.20;99.90
16966;DHT22;8599;47.852;12.070;2022-12-29T08:53:33;6.20;99.90
16966;DHT22;8599;47.852;12.070;2022-12-29T08:56:01;6.30;99.90
16966;DHT22;8599;47.852;12.070;2022-12-29T08:58:29;6.20;99.90
16966;DHT22;8599;47.852;12.070;2022-12-29T09:00:57;6.30;99.90
16966;DHT22;8599;47.852;12.070;2022-12-29T09:03:24;6.20;99.90
16966;DHT22;8599;47.852;12.070;2022-12-29T09:05:58;6.30;99.90
16966;DHT22;8599;47.852;12.070;2022-12-29T09:08:25;6.30;99.90
16966;DHT22;8599;47.852;12.070;2022-12-29T09:10:52;6.30;99.90
16966;DHT22;8599;47.852;12.070;2022-12-29T09:13:19;6.30;99.90
16966;DHT22;8599;47.852;12.070;2022-12-29T09:15:47;6.40;99.90
16966;DHT22;8599;47.852;12.070;2022-12-29T09:18:14;6.50;99.90
16966;DHT22;8599;47.852;12.070;2022-12-29T09:20:41;6.60;99.90
16966;DHT22;8599;47.852;12.070;2022-12-29T09:23:08;6.60;99.90
16966;DHT22;8599;47.852;12.070;2022-12-29T09:25:35;6.70;99.90
16966;DHT22;8599;47.852;12.070;2022-12-29T09:28:02;6.70;99.90
16966;DHT22;8599;47.852;12.070;2022-12-29T09:30:33;6.80;99.90
16966;DHT22;8599;47.852;12.070;2022-12-29T09:33:01;6.80;99.90
16966;DHT22;8599;47.852;12.070;2022-12-29T09:35:28;6.80;99.90
16966;DHT22;8599;47.852;12.070;2022-12-29T09:37:54;6.80;99.90
16966;DHT22;8599;47.852;12.070;2022-12-29T09:40:26;6.90;99.90
16966;DHT22;8599;47.852;12.070;2022-12-29T09:43:14;7.00;99.90
16966;DHT22;8599;47.852;12.070;2022-12-29T09:45:45;7.00;99.90
16966;DHT22;8599;47.852;12.070;2022-12-29T09:48:25;7.20;99.90
16966;DHT22;8599;47.852;12.070;2022-12-29T09:50:57;7.10;99.90
16966;DHT22;8599;47.852;12.070;2022-12-29T09:53:28;7.20;99.90
16966;DHT22;8599;47.852;12.070;2022-12-29T09:55:59;7.20;99.90
16966;DHT22;8599;47.852;12.070;2022-12-29T09:58:30;7.20;99.90
16966;DHT22;8599;47.852;12.070;2022-12-29T10:01:02;7.30;99.90
16966;DHT22;8599;47.852;12.070;2022-12-29T10:03:43;7.50;99.90
16966;DHT22;8599;47.852;12.070;2022-12-29T10:06:15;7.60;99.90
16966;DHT22;8599;47.852;12.070;2022-12-29T10:08:48;7.60;99.90
16966;DHT22;8599;47.852;12.070;2022-12-29T10:11:24;7.70;99.90
16966;DHT22;8599;47.852;12.070;2022-12-29T10:14:06;7.60;99.90
16966;DHT22;8599;47.852;12.070;2022-12-29T10:16:45;7.60;99.90
16966;DHT22;8599;47.852;12.070;2022-12-29T10:19:26;7.80;99.90
16966;DHT22;8599;47.852;12.070;2022-12-29T10:22:05;7.90;99.90
16966;DHT22;8599;47.852;12.070;2022-12-29T10:24:38;7.90;99.90
16966;DHT22;8599;47.852;12.070;2022-12-29T10:27:10;7.90;99.90
16966;DHT22;8599;47.852;12.070;2022-12-29T10:29:41;7.90;99.90
16966;DHT22;8599;47.852;12.070;2022-12-29T10:32:21;8.00;99.90
16966;DHT22;8599;47.852;12.070;2022-12-29T10:34:53;8.00;99.90
16966;DHT22;8599;47.852;12.070;2022-12-29T10:37:30;8.10;99.90
16966;DHT22;8599;47.852;12.070;2022-12-29T10:39:58;8.10;99.90
16966;DHT22;8599;47.852;12.070;2022-12-29T10:42:27;8.20;99.90
16966;DHT22;8599;47.852;12.070;2022-12-29T10:44:55;8.20;99.90
16966;DHT22;8599;47.852;12.070;2022-12-29T10:47:26;8.30;99.90
16966;DHT22;8599;47.852;12.070;2022-12-29T10:49:56;8.20;99.90
16966;DHT22;8599;47.852;12.070;2022-12-29T10:52:26;8.30;99.90
16966;DHT22;8599;47.852;12.070;2022-12-29T10:54:56;8.30;99.90
16966;DHT22;8599;47.852;12.070;2022-12-29T10:57:27;8.30;99.90
16966;DHT22;8599;47.852;12.070;2022-12-29T10:59:55;8.30;99.90
16966;DHT22;8599;47.852;12.070;2022-12-29T11:02:45;8.40;99.90
16966;DHT22;8599;47.852;12.070;2022-12-29T11:05:23;8.40;99.90
16966;DHT22;8599;47.852;12.070;2022-12-29T11:07:59;8.40;99.90
16966;DHT22;8599;47.852;12.070;2022-12-29T11:10:31;8.50;99.90
16966;DHT22;8599;47.852;12.070;2022-12-29T11:13:03;8.50;99.90
16966;DHT22;8599;47.852;12.070;2022-12-29T11:15:38;8.50;99.90
16966;DHT22;8599;47.852;12.070;2022-12-29T11:18:21;8.50;99.90
16966;DHT22;8599;47.852;12.070;2022-12-29T11:20:50;8.50;99.90
16966;DHT22;8599;47.852;12.070;2022-12-29T11:23:30;8.50;99.90
16966;DHT22;8599;47.852;12.070;2022-12-29T11:26:13;8.60;99.90
16966;DHT22;8599;47.852;12.070;2022-12-29T11:28:42;8.60;99.90
16966;DHT22;8599;47.852;12.070;2022-12-29T11:31:09;8.60;99.90
16966;DHT22;8599;47.852;12.070;2022-12-29T11:33:38;8.70;99.90
16966;DHT22;8599;47.852;12.070;2022-12-29T11:36:10;8.70;99.90
16966;DHT22;8599;47.852;12.070;2022-12-29T11:38:40;9.00;99.90
16966;DHT22;8599;47.852;12.070;2022-12-29T11:41:11;9.00;99.90
16966;DHT22;8599;47.852;12.070;2022-12-29T11:43:41;9.10;99.90
16966;DHT22;8599;47.852;12.070;2022-12-29T11:46:14;9.20;99.90
16966;DHT22;8599;47.852;12.070;2022-12-29T11:48:43;9.30;99.90
16966;DHT22;8599;47.852;12.070;2022-12-29T11:51:11;9.30;99.90
16966;DHT22;8599;47.852;12.070;2022-12-29T11:53:46;9.20;99.90
16966;DHT22;8599;47.852;12.070;2022-12-29T11:56:15;9.30;99.90
16966;DHT22;8599;47.852;12.070;2022-12-29T11:58:43;9.30;99.90
16966;DHT22;8599;47.852;12.070;2022-12-29T12:01:15;9.30;99.90
16966;DHT22;8599;47.852;12.070;2022-12-29T12:03:47;9.30;99.90
16966;DHT22;8599;47.852;12.070;2022-12-29T12:06:20;9.30;99.90
16966;DHT22;8599;47.852;12.070;2022-12-29T12:08:54;9.30;99.90
16966;DHT22;8599;47.852;12.070;2022-12-29T12:11:25;9.40;99.90
16966;DHT22;8599;47.852;12.070;2022-12-29T12:13:58;9.40;99.90
16966;DHT22;8599;47.852;12.070;2022-12-29T12:16:33;9.30;99.90
16966;DHT22;8599;47.852;12.070;2022-12-29T12:19:04;9.20;99.90
16966;DHT22;8599;47.852;12.070;2022-12-29T12:21:42;9.20;99.90
16966;DHT22;8599;47.852;12.070;2022-12-29T12:24:26;9.10;99.90
16966;DHT22;8599;47.852;12.070;2022-12-29T12:27:00;9.10;99.90
16966;DHT22;8599;47.852;12.070;2022-12-29T12:29:35;9.00;99.90
16966;DHT22;8599;47.852;12.070;2022-12-29T12:32:09;9.00;99.90
16966;DHT22;8599;47.852;12.070;2022-12-29T12:34:39;9.00;99.90
16966;DHT22;8599;47.852;12.070;2022-12-29T12:37:23;9.00;99.90
16966;DHT22;8599;47.852;12.070;2022-12-29T12:40:06;8.90;99.90
16966;DHT22;8599;47.852;12.070;2022-12-29T12:42:52;9.00;99.90
16966;DHT22;8599;47.852;12.070;2022-12-29T12:45:40;9.10;99.90
16966;DHT22;8599;47.852;12.070;2022-12-29T12:48:27;9.10;99.90
16966;DHT22;8599;47.852;12.070;2022-12-29T12:50:59;9.10;99.90
16966;DHT22;8599;47.852;12.070;2022-12-29T12:53:41;9.30;99.90
16966;DHT22;8599;47.852;12.070;2022-12-29T12:59:17;9.60;99.90
16966;DHT22;8599;47.852;12.070;2022-12-29T13:01:52;9.90;99.90
16966;DHT22;8599;47.852;12.070;2022-12-29T13:04:48;10.30;99.90
16966;DHT22;8599;47.852;12.070;2022-12-29T13:07:27;10.60;99.90
16966;DHT22;8599;47.852;12.070;2022-12-29T13:10:22;10.90;99.90
16966;DHT22;8599;47.852;12.070;2022-12-29T13:12:57;11.10;99.90
16966;DHT22;8599;47.852;12.070;2022-12-29T13:15:39;11.30;99.90
16966;DHT22;8599;47.852;12.070;2022-12-29T13:18:20;11.60;99.70
16966;DHT22;8599;47.852;12.070;2022-12-29T13:20:53;11.90;99.00
16966;DHT22;8599;47.852;12.070;2022-12-29T13:23:27;11.90;99.00
16966;DHT22;8599;47.852;12.070;2022-12-29T13:26:06;11.50;99.20
16966;DHT22;8599;47.852;12.070;2022-12-29T13:28:44;11.30;99.90
16966;DHT22;8599;47.852;12.070;2022-12-29T13:31:15;11.00;99.90
16966;DHT22;8599;47.852;12.070;2022-12-29T13:33:53;10.80;99.90
16966;DHT22;8599;47.852;12.070;2022-12-29T13:36:28;10.60;99.90
16966;DHT22;8599;47.852;12.070;2022-12-29T13:39:02;10.50;99.90
16966;DHT22;8599;47.852;12.070;2022-12-29T13:41:34;10.30;99.90
16966;DHT22;8599;47.852;12.070;2022-12-29T13:44:03;10.10;99.90
16966;DHT22;8599;47.852;12.070;2022-12-29T13:46:36;10.00;99.90
16966;DHT22;8599;47.852;12.070;2022-12-29T13:49:08;10.10;99.90
16966;DHT22;8599;47.852;12.070;2022-12-29T13:51:41;10.20;99.90
16966;DHT22;8599;47.852;12.070;2022-12-29T13:54:19;10.30;99.90
16966;DHT22;8599;47.852;12.070;2022-12-29T13:56:52;10.30;99.90
16966;DHT22;8599;47.852;12.070;2022-12-29T13:59:28;10.20;99.90
16966;DHT22;8599;47.852;12.070;2022-12-29T14:02:18;10.20;99.90
16966;DHT22;8599;47.852;12.070;2022-12-29T14:04:57;9.90;99.90
16966;DHT22;8599;47.852;12.070;2022-12-29T14:07:24;9.80;99.90
16966;DHT22;8599;47.852;12.070;2022-12-29T14:09:52;9.70;99.90
16966;DHT22;8599;47.852;12.070;2022-12-29T14:12:31;9.60;99.90
16966;DHT22;8599;47.852;12.070;2022-12-29T14:15:21;9.50;99.90
16966;DHT22;8599;47.852;12.070;2022-12-29T14:18:03;9.40;99.90
16966;DHT22;8599;47.852;12.070;2022-12-29T14:20:31;9.30;99.90
16966;DHT22;8599;47.852;12.070;2022-12-29T14:23:00;9.30;99.90
16966;DHT22;8599;47.852;12.070;2022-12-29T14:25:53;9.10;99.90
16966;DHT22;8599;47.852;12.070;2022-12-29T14:28:25;9.10;99.90
16966;DHT22;8599;47.852;12.070;2022-12-29T14:30:54;9.10;99.90
16966;DHT22;8599;47.852;12.070;2022-12-29T14:33:22;8.90;99.90
16966;DHT22;8599;47.852;12.070;2022-12-29T14:35:52;8.90;99.90
16966;DHT22;8599;47.852;12.070;2022-12-29T14:38:22;8.90;99.90
16966;DHT22;8599;47.852;12.070;2022-12-29T14:40:50;8.80;99.90
16966;DHT22;8599;47.852;12.070;2022-12-29T14:43:22;8.80;99.90
16966;DHT22;8599;47.852;12.070;2022-12-29T14:46:01;8.70;99.90
16966;DHT22;8599;47.852;12.070;2022-12-29T14:48:40;8.80;99.90
16966;DHT22;8599;47.852;12.070;2022-12-29T14:51:19;8.70;99.90
16966;DHT22;8599;47.852;12.070;2022-12-29T14:53:49;8.60;99.90
16966;DHT22;8599;47.852;12.070;2022-12-29T14:56:17;8.60;99.90
16966;DHT22;8599;47.852;12.070;2022-12-29T14:58:49;8.60;99.90
16966;DHT22;8599;47.852;12.070;2022-12-29T15:01:26;8.70;99.90
16966;DHT22;8599;47.852;12.070;2022-12-29T15:03:55;8.60;99.90
16966;DHT22;8599;47.852;12.070;2022-12-29T15:06:24;8.60;99.90
16966;DHT22;8599;47.852;12.070;2022-12-29T15:08:59;8.60;99.90
16966;DHT22;8599;47.852;12.070;2022-12-29T15:11:41;8.60;99.90
16966;DHT22;8599;47.852;12.070;2022-12-29T15:14:30;8.50;99.90
16966;DHT22;8599;47.852;12.070;2022-12-29T15:17:00;8.50;99.90
16966;DHT22;8599;47.852;12.070;2022-12-29T15:19:27;8.50;99.90
16966;DHT22;8599;47.852;12.070;2022-12-29T15:21:55;8.50;99.90
16966;DHT22;8599;47.852;12.070;2022-12-29T15:24:23;8.50;99.90
16966;DHT22;8599;47.852;12.070;2022-12-29T15:26:51;8.50;99.90
16966;DHT22;8599;47.852;12.070;2022-12-29T15:29:35;8.50;99.90
16966;DHT22;8599;47.852;12.070;2022-12-29T15:32:16;8.60;99.90
16966;DHT22;8599;47.852;12.070;2022-12-29T15:34:44;8.50;99.90
16966;DHT22;8599;47.852;12.070;2022-12-29T15:37:17;8.50;99.90
16966;DHT22;8599;47.852;12.070;2022-12-29T15:39:45;8.40;99.90
16966;DHT22;8599;47.852;12.070;2022-12-29T15:42:29;8.40;99.90
16966;DHT22;8599;47.852;12.070;2022-12-29T15:44:57;8.30;99.90
16966;DHT22;8599;47.852;12.070;2022-12-29T15:47:28;8.30;99.90
16966;DHT22;8599;47.852;12.070;2022-12-29T15:50:01;8.30;99.90
16966;DHT22;8599;47.852;12.070;2022-12-29T15:52:29;8.40;99.90
16966;DHT22;8599;47.852;12.070;2022-12-29T15:54:58;8.40;99.90
16966;DHT22;8599;47.852;12.070;2022-12-29T15:57:27;8.30;99.90
16966;DHT22;8599;47.852;12.070;2022-12-29T15:59:54;8.40;99.90
16966;DHT22;8599;47.852;12.070;2022-12-29T16:02:22;8.30;99.90
16966;DHT22;8599;47.852;12.070;2022-12-29T16:04:51;8.40;99.90
16966;DHT22;8599;47.852;12.070;2022-12-29T16:07:27;8.30;99.90
16966;DHT22;8599;47.852;12.070;2022-12-29T16:09:55;8.40;99.90
16966;DHT22;8599;47.852;12.070;2022-12-29T16:12:24;8.40;99.90
16966;DHT22;8599;47.852;12.070;2022-12-29T16:14:54;8.40;99.90
16966;DHT22;8599;47.852;12.070;2022-12-29T16:17:24;8.40;99.90